This is the latest recevied weather packets stored in our database for station/object DL7GAI-7. If no packets are shown the sender has not sent any weather packets the latest 10 day(s).
| Time | Temp. | Humidity | Pressure | Rain* | Wind** | Luminosity | Snow |
|---|---|---|---|---|---|---|---|
| 1777107363 | 12.78° C | 47% | 1018.5 hPa | 0 mm | 0.89 m/s, 180° | - | - |
| 1777106468 | 12.78° C | 47% | 1018.5 hPa | 0 mm | 0.89 m/s, 180° | - | - |
| 1777105709 | 12.22° C | 45% | 1018.8 hPa | 0 mm | 0.89 m/s, 225° | - | - |
| 1777104893 | 12.22° C | 45% | 1018.8 hPa | 0 mm | 0.89 m/s, 225° | - | - |
| 1777104068 | 10° C | 53% | 1019.3 hPa | 0 mm | 0.89 m/s, 270° | - | - |
| 1777103249 | 10° C | 53% | 1019.3 hPa | 0 mm | 0.89 m/s, 270° | - | - |
| 1777102429 | 9.44° C | 58% | 1019.5 hPa | 0 mm | 0.89 m/s, 270° | - | - |
| 1777101588 | 9.44° C | 58% | 1019.5 hPa | 0 mm | 0.89 m/s, 270° | - | - |
| 1777100801 | 9.44° C | 58% | 1019.5 hPa | 0 mm | 0.89 m/s, 270° | - | - |
| 1777100061 | 4.44° C | 73% | 1020.3 hPa | 0 mm | 0.89 m/s, 315° | - | - |
| 1777099263 | 4.44° C | 73% | 1020.3 hPa | 0 mm | 0.89 m/s, 315° | - | - |
| 1777098474 | 4.44° C | 73% | 1020.3 hPa | 0 mm | 0.89 m/s, 315° | - | - |
| 1777097598 | 4.44° C | 73% | 1020.3 hPa | 0 mm | 0.89 m/s, 315° | - | - |
| 1777096829 | 3.33° C | 80% | 1020.3 hPa | 0 mm | 0.89 m/s, 0° | - | - |
| 1777096078 | 3.33° C | 80% | 1020.3 hPa | 0 mm | 0.89 m/s, 0° | - | - |
| 1777095299 | 2.78° C | 80% | 1020.2 hPa | 0 mm | 0.89 m/s, 0° | - | - |
| 1777094466 | 2.78° C | 80% | 1020.2 hPa | 0 mm | 0.89 m/s, 0° | - | - |
| 1777093597 | 2.78° C | 80% | 1020.2 hPa | 0 mm | 0.89 m/s, 0° | - | - |
| 1777092752 | 3.33° C | 78% | 1020 hPa | 0 mm | 0.89 m/s, 0° | - | - |
| 1777091999 | 3.33° C | 78% | 1020 hPa | 0 mm | 0.89 m/s, 0° | - | - |
| 1777091269 | 3.33° C | 75% | 1020.1 hPa | 0 mm | 0.89 m/s, 0° | - | - |
| 1777090444 | 3.33° C | 75% | 1020.1 hPa | 0 mm | 0.89 m/s, 0° | - | - |
| 1777089698 | 4.44° C | 70% | 1020 hPa | 0 mm | 0.45 m/s, 45° | - | - |
| 1777088868 | 4.44° C | 70% | 1020 hPa | 0 mm | 0.45 m/s, 45° | - | - |
| 1777088059 | 3.89° C | 74% | 1020.1 hPa | 0 mm | 0.89 m/s, 0° | - | - |
* Rain latest hour (hover to see other rain measurements)
** Current wind speed in m/s (hover to see current wind gust speed)